x

Gulf Of Maine - 78 Nm East Of Portsmouth, Nh (44005) Wave Buoy

5:50pm - Sun 29th May 2016 All times are EDT. -4 hours from GMT.

  • Sig Wave height 4.6ft
  • Peak Period 6s
  • Average Period 5s
  • Wind
    16mph, 20mph gusts
  • Sea Temp 50°f
  • 空気 Temp 49°f
  • Sea Pressure 1021.9mb
  • Gulf Of Maine - 78 Nm East Of Portsmouth, Nh
  • Gulf Of Maine - 78 Nm East Of Portsmouth, Nh

More Historic Weather Station data

Upgrade to MSW Pro to gain access to the past 30 days of data for over 8000 Wavebouys and Weather Stations around the globe.

Join Pro

Comparision Forecast

View Surf forecast
   
Sun 05/29 5:50pm 4.5ft 6s 5s 16 20 mph 1021.9mb 50f 49f
4:50pm 4.5ft 6s 5s 16 20 mph 1022.3mb 50f 50f
3:50pm 4.5ft 5s 5s 18 20 mph 1022.7mb 50f 50f
2:50pm 4.5ft 6s 5s 16 18 mph 1023.4mb 50f 50f
1:50pm 4.5ft 6s 5s 18 20 mph 1023.2mb 51f 50f
12:50pm 4ft 6s  -  16 20 mph 1023.6mb 50f 50f
11:50am 4.5ft 6s 5s 16 18 mph 1024.1mb 51f 51f
10:50am 4.5ft 6s 5s 16 20 mph 1024.1mb 51f 51f
9:50am 5ft 5s 4s 18 22 mph 1023.5mb 51f 52f
8:50am 5ft 5s 5s 20 22 mph 1023.4mb 51f 52f
7:50am 5ft 5s 4s 22 27 mph 1022.8mb 52f 53f
6:50am 4.5ft 5s 4s 22 27 mph 1022.4mb 52f 53f
5:50am 4.5ft 4s 4s 22 27 mph 1021.9mb 52f 53f
4:50am 3.5ft 4s 4s 22 29 mph 1021mb 53f 53f
3:50am 2.5ft 3s 4s 18 22 mph 1020.9mb 53f 54f
2:50am 2.5ft 6s 4s 13 16 mph 1021.1mb 53f 54f
1:50am 2.5ft 5s 4s 16 18 mph 1021.1mb 52f 54f
12:50am 2.5ft 5s 4s 9 11 mph 1021.1mb 52f 54f
Sat 05/28 11:50pm 2ft 7s 4s 11 13 mph 1020.5mb 52f 54f
10:50pm 2ft 5s 4s 11
mph
1020.4mb 53f 55f
9:50pm 2ft 7s 4s 11 13 mph 1020.4mb 53f 55f
8:50pm 2ft 5s 5s 13 16 mph 1019.8mb 53f 56f
7:50pm 2ft 5s 5s 11 13 mph 1019.2mb 53f 56f
6:50pm 2ft 6s 5s 9 11 mph 1018.1mb 54f 56f
5:50pm 2.5ft 5s 5s 9
mph
1017.9mb 56f 57f
4:50pm 2.5ft 5s 5s 4 7 mph 1017.9mb 56f 58f
3:50pm 2.5ft 5s 5s 4
mph
1017.8mb 56f 58f
2:50pm 2ft 5s 5s 7
mph
1017.6mb 56f 57f
1:50pm 2.5ft 5s 5s 2 4 mph 1017.9mb 54f 57f
12:50pm 2.5ft 5s 5s 7
mph
1017.9mb 54f 56f
11:50am 2.5ft 5s 5s 4 7 mph 1018.2mb 54f 55f
10:50am 2.5ft 5s 5s 7
mph
1018.2mb 53f 55f
9:50am 2.5ft 5s 5s 9 11 mph 1017.9mb 53f 55f
8:50am 3ft 6s 5s 9
mph
1017.8mb 52f 55f
7:50am 3ft 5s 5s 9
mph
1017.3mb 52f 55f
6:50am 3ft 5s 5s 7 9 mph 1016.9mb 51f 55f
5:50am 3ft 5s 5s 9
mph
1016.4mb 51f 54f
4:50am 3ft 5s 4s 4 7 mph 1015.8mb 51f 55f
3:50am 3.5ft 5s 5s 7
mph
1016.3mb 51f 54f
2:50am 3.5ft 5s 4s 13 16 mph 1015.7mb 52f 55f
1:50am 3ft 4s 4s 9 11 mph 1016.1mb 52f 55f
12:50am 2.5ft 7s 4s 11 13 mph 1016.3mb 52f 55f
Fri 05/27 11:50pm 2.5ft 4s 4s 11 13 mph 1016.3mb 52f 56f
10:50pm 2.5ft 4s 5s 9
mph
1016.3mb 52f 55f
9:50pm 2.5ft 4s 5s 7 9 mph 1016.6mb 52f 53f
8:50pm 2.5ft 5s 5s 4 7 mph 1016.8mb 52f 52f
7:50pm 2.5ft 4s 4s 4 7 mph 1017.1mb 52f 51f
6:50pm 2.5ft 4s 4s 4 7 mph 1017.2mb 53f 52f
5:50pm 2.5ft 5s 4s 9 11 mph 1017.5mb 53f 52f
4:50pm  -   -   -  9 11 mph 1017.3mb 53f 53f
3:50pm 3ft 5s 4s 9 11 mph 1018.2mb 53f 53f
2:50pm 2.5ft 4s 4s 4 7 mph 1019mb 52f 53f
1:50pm 2.5ft 4s 4s 9 11 mph 1019.4mb 52f 53f
12:50pm 3ft 6s 4s 11 13 mph 1019.8mb 52f 53f
11:50am 3ft 4s 4s 9 11 mph 1020.5mb 52f 53f
10:50am 2.5ft 6s 4s 9 11 mph 1021.1mb 51f 53f
9:50am 2.5ft 7s 4s 9 11 mph 1020.8mb 51f 53f
8:50am 2.5ft 8s 4s 13 16 mph 1020.6mb 51f 53f
7:50am 2.5ft 7s 4s 16 18 mph 1020.8mb 51f 53f
6:50am 2.5ft 7s 4s 13 16 mph 1021.1mb 51f 53f
5:50am 2.5ft 7s 4s 13 16 mph 1021.1mb 52f 53f
4:50am 2ft 8s 5s 13
mph
1020.9mb 52f 53f
3:50am 2ft 8s 5s 11 13 mph 1020.9mb 52f 53f
2:50am 2ft 8s 5s 13 16 mph 1020.9mb 51f 53f
1:50am 2ft 8s 5s 7 9 mph 1021.3mb 52f 53f
12:50am 2.5ft 8s 5s 11
mph
1020.9mb 52f 54f
Thu 05/26 11:50pm 2.5ft 7s 5s 9 11 mph 1021mb 52f 54f
10:50pm 2.5ft 8s 6s 11
mph
1020.6mb 52f 55f
9:50pm 2.5ft 7s 6s 11
mph
1020.2mb 52f 54f
8:50pm 2.5ft 7s 6s 7 9 mph 1019.8mb 52f 54f
7:50pm 2.5ft 8s 6s 11
mph
1019.8mb 52f 55f
6:50pm 2ft 8s 6s 9 11 mph 1019mb 54f 56f
5:50pm 2ft 7s 6s 9
mph
1018.7mb 55f 57f
4:50pm 2ft 8s 6s 9 11 mph 1018.8mb 56f 58f
3:50pm 2.5ft 8s 6s 7
mph
1018.7mb 56f 58f
2:50pm 2.5ft 8s 6s 7
mph
1018.8mb 57f 58f
1:50pm 2.5ft 8s 6s 4
mph
1018.6mb 56f 58f
12:50pm 3ft 7s 6s 4
mph
1018.9mb 55f 56f
11:50am 3ft 7s 6s 7
mph
1019mb 54f 57f
10:50am 3ft 8s 6s 4
mph
1018.7mb 53f 56f
9:50am 3ft 7s 7s 7
mph
1018.6mb 52f 56f
8:50am 3ft 7s 7s 7
mph
1018.7mb 51f 55f
7:50am 2.5ft 8s 6s 9 11 mph 1018.5mb 51f 54f
6:50am 2.5ft 8s 6s 7
mph
1017.7mb 51f 54f
5:50am 2.5ft 8s 6s 9
mph
1016.9mb 51f 54f
4:50am 2.5ft 8s 6s 7
mph
1016mb 51f 54f
3:50am 2.5ft 9s 6s 9
mph
1015.3mb 51f 53f
2:50am 2.5ft 8s 5s 9
mph
1014.6mb 51f 53f
1:50am 3ft 8s 5s 7 9 mph 1013.9mb 51f 53f
12:50am 3.5ft 7s 5s 2
mph
1013.6mb 51f 53f
Wed 05/25 11:50pm 3.5ft 8s 5s 7 9 mph 1013.6mb 51f 53f